Port Hope, MI (48468)

5:14 PM EST on February 10, 2016 (GMT -0500)
Eastwatch-by-the-Sea | | Change Station
CLOSE
Current Station
Personal Weather Station
Location: Port Hope, MI
Elevation: 565 ft
Nearby Weather Stations

Elev 565 ft 43.95 °N, 82.72 °W | Updated 8 seconds ago

Overcast
Overcast
14.9 °F
Feels Like 9 °F
N
3.6
Wind Variable Wind from WNW
Gusts 4.9 mph

Today
High -- | Low -- °F
--% Chance of Precip.
Yesterday
High -- | Low -- °F
Precip. -- in
Pressure 29.84 in
Visibility 10.0 miles
Clouds Scattered Clouds 3700 ft
Scattered Clouds 4500 ft
Overcast 5000 ft
Windchill 9 °F
Dew Point 5 °F
Humidity 64%
Rainfall 0.00 in
Snow Depth Not available.
7:37 AM 5:53 PM
Waxing Crescent, 7% visible
METAR KBAX 102154Z AUTO 31013G17KT 10SM SCT037 SCT045 OVC050 M09/M15 A2984 RMK AO2 T10931149
Pressure 29.84 in
Visibility 10.0 miles
Clouds Scattered Clouds 3700 ft
Scattered Clouds 4500 ft
Overcast 5000 ft
Windchill 9 °F
Dew Point 5 °F
Humidity 64%
Rainfall 0.00 in
Snow Depth Not available.
7:37 AM 5:53 PM
Waxing Crescent, 7% visible
METAR KBAX 102154Z AUTO 31013G17KT 10SM SCT037 SCT045 OVC050 M09/M15 A2984 RMK AO2 T10931149

10-Day Weather Forecast

Almanac

Astronomy

Feb. 10, 2016 Rise Set
Actual Time
Civil Twilight
Nautical Twilight
Astronomical Twilight
Moon
Length of Visible Light
Length of Day
Tomorrow will be .
, % of the Moon is Illuminated

Today's Extremes

State Highs State Lows

Community

WunderPhotos

Upload Photos

1,891,956 photos uploaded!

WunderBlog® & News

Nearby

Air Quality

  Air Quality AQ Index Pollutant
Not available.

Snow Depth

Station Depth Elevation

Earthquake Activity

City Distance Mag. Time & Date
Minimum magnitude displayed is 2.5.

Coastal Water Temperatures

Place Temperature

Stations

Nearby Weather Stations

Station Location Temp. Windchill Dew Point Humidity Wind Precip. Elev Updated Type
                   

Watches & Warnings

There are currently no watches in effect.